Airfield :
LOGIN :

Register | Disclaimer

   EN    FR    IT 

 










Legend :    VFR   Marginal VFR   IFR   Intensive IFR   Very Intensive IFR
Visi :
Ceiling :
>= 8 km
>= 3000ft
5 to 8 km
1000 to 3000 ft
1500m to 5 km
500 to 1000 ft
800 to 1500m
200 to 500 ft
< 800m
< 200 ft
Symbols :   Thunderstorms  Fog  Heavy snow  Heavy precipitations  Wind > 20 kt
SIGMETs :     Misc.  Thunderstorms  Icing  Turbulence  Mountain Waves  Volcanic Ashes






- Airport Elevation : 46 ft
- IATA code : PAF


LPMT - Montijo Air Base

CURRENT METAR :
  • 262000Z 15005KT 9999 FEW012 11/11 Q1025

EXPIRED METARs :
  • 261900Z 17003KT 9999 FEW020 12/11 Q1025
  • 261800Z 23005KT 9999 FEW025 13/11 Q1024

TAF TAF LPMT
Valid from the 26 at 18:00 until the 27 at 18:00 UTC


261702Z 2618/2718 25008KT 9999 SCT020
BECMG 2618/2620 18008KT
BECMG 2708/2710 20012KT SCT012 BKN020
TEMPO 2710/2718 3000 RADZ BR SCT008 BKN012



MET'MAP, your aeronautical weather chart ! - Copyright ORBIFLY December 2007 - Disclaimer

ORBIFLY MET'MAP TEAM :

Programming & Development : Alexandra Zaïnal
Concept & original design : Baudouin d'Aumeries
Assistance for programming : Marc-Olivier Méhu
Technical & hardware support : Manuel Goepfert

Contact : metmap@orbifly.com




SOURCES & CREDITS :

   NOAA